sensor_id;sensor_type;location;lat;lon;timestamp;pressure;altitude;pressure_sealevel;temperature;humidity
20656;BME280;10487;53.320;8.672;2022-11-15T00:01:15;100764.31;;;5.21;62.42
20656;BME280;10487;53.320;8.672;2022-11-15T00:04:18;100766.09;;;5.20;62.49
20656;BME280;10487;53.320;8.672;2022-11-15T00:07:19;100763.44;;;5.20;62.52
20656;BME280;10487;53.320;8.672;2022-11-15T00:10:42;100765.16;;;5.21;62.46
20656;BME280;10487;53.320;8.672;2022-11-15T00:13:43;100761.56;;;5.22;62.47
20656;BME280;10487;53.320;8.672;2022-11-15T00:16:45;100758.00;;;5.23;62.54
20656;BME280;10487;53.320;8.672;2022-11-15T00:19:47;100775.59;;;5.24;62.60
20656;BME280;10487;53.320;8.672;2022-11-15T00:22:48;100766.81;;;5.24;62.52
20656;BME280;10487;53.320;8.672;2022-11-15T00:25:57;100754.44;;;5.24;62.55
20656;BME280;10487;53.320;8.672;2022-11-15T00:28:59;100751.69;;;5.26;62.37
20656;BME280;10487;53.320;8.672;2022-11-15T00:32:00;100748.19;;;5.25;62.75
20656;BME280;10487;53.320;8.672;2022-11-15T00:35:02;100748.19;;;5.25;62.56
20656;BME280;10487;53.320;8.672;2022-11-15T00:38:04;100753.47;;;5.25;62.47
20656;BME280;10487;53.320;8.672;2022-11-15T00:41:07;100750.94;;;5.24;62.55
20656;BME280;10487;53.320;8.672;2022-11-15T00:44:10;100757.13;;;5.23;62.50
20656;BME280;10487;53.320;8.672;2022-11-15T00:47:11;100756.47;;;5.19;62.60
20656;BME280;10487;53.320;8.672;2022-11-15T00:50:13;100753.00;;;5.17;62.54
20656;BME280;10487;53.320;8.672;2022-11-15T00:53:16;100761.13;;;5.14;62.63
20656;BME280;10487;53.320;8.672;2022-11-15T00:56:18;100761.25;;;5.11;62.48
20656;BME280;10487;53.320;8.672;2022-11-15T00:59:19;100765.81;;;5.08;62.60
20656;BME280;10487;53.320;8.672;2022-11-15T01:02:21;100768.56;;;5.06;62.63
20656;BME280;10487;53.320;8.672;2022-11-15T01:05:22;100766.81;;;5.05;62.58
20656;BME280;10487;53.320;8.672;2022-11-15T01:08:24;100761.69;;;5.02;62.60
20656;BME280;10487;53.320;8.672;2022-11-15T01:11:26;100768.03;;;5.00;62.70
20656;BME280;10487;53.320;8.672;2022-11-15T01:14:27;100770.72;;;4.98;62.58
20656;BME280;10487;53.320;8.672;2022-11-15T01:17:30;100763.78;;;4.96;62.65
20656;BME280;10487;53.320;8.672;2022-11-15T01:20:32;100756.00;;;4.93;62.65
20656;BME280;10487;53.320;8.672;2022-11-15T01:23:33;100755.22;;;4.91;62.59
20656;BME280;10487;53.320;8.672;2022-11-15T01:26:35;100743.88;;;4.89;62.58
20656;BME280;10487;53.320;8.672;2022-11-15T01:29:38;100744.75;;;4.89;62.82
20656;BME280;10487;53.320;8.672;2022-11-15T01:32:39;100750.09;;;4.88;62.71
20656;BME280;10487;53.320;8.672;2022-11-15T01:35:41;100746.63;;;4.87;62.63
20656;BME280;10487;53.320;8.672;2022-11-15T01:38:43;100746.63;;;4.87;62.58
20656;BME280;10487;53.320;8.672;2022-11-15T01:41:44;100736.88;;;4.88;62.60
20656;BME280;10487;53.320;8.672;2022-11-15T01:44:50;100748.31;;;4.88;62.53
20656;BME280;10487;53.320;8.672;2022-11-15T01:47:53;100740.47;;;4.87;62.58
20656;BME280;10487;53.320;8.672;2022-11-15T01:50:56;100736.97;;;4.86;62.54
20656;BME280;10487;53.320;8.672;2022-11-15T01:54:04;100740.53;;;4.85;62.63
20656;BME280;10487;53.320;8.672;2022-11-15T01:57:09;100723.88;;;4.83;62.55
20656;BME280;10487;53.320;8.672;2022-11-15T02:00:13;100709.91;;;4.81;62.62
20656;BME280;10487;53.320;8.672;2022-11-15T02:03:16;100707.50;;;4.76;62.56
20656;BME280;10487;53.320;8.672;2022-11-15T02:06:18;100707.72;;;4.72;62.48
20656;BME280;10487;53.320;8.672;2022-11-15T02:09:21;100702.72;;;4.66;62.57
20656;BME280;10487;53.320;8.672;2022-11-15T02:12:23;100694.19;;;4.61;62.56
20656;BME280;10487;53.320;8.672;2022-11-15T02:15:27;100694.50;;;4.55;62.47
20656;BME280;10487;53.320;8.672;2022-11-15T02:18:35;100691.13;;;4.51;62.48
20656;BME280;10487;53.320;8.672;2022-11-15T02:21:44;100691.38;;;4.47;62.53
20656;BME280;10487;53.320;8.672;2022-11-15T02:41:09;100679.56;;;4.18;62.37
20656;BME280;10487;53.320;8.672;2022-11-15T02:44:21;100681.66;;;4.11;62.65
20656;BME280;10487;53.320;8.672;2022-11-15T02:47:27;100677.47;;;4.07;62.63
20656;BME280;10487;53.320;8.672;2022-11-15T02:50:32;100694.22;;;4.06;62.83
20656;BME280;10487;53.320;8.672;2022-11-15T02:53:34;100691.50;;;4.08;62.72
20656;BME280;10487;53.320;8.672;2022-11-15T02:56:36;100690.34;;;4.13;62.75
20656;BME280;10487;53.320;8.672;2022-11-15T03:07:05;100686.75;;;4.33;62.78
20656;BME280;10487;53.320;8.672;2022-11-15T03:10:13;100688.16;;;4.40;62.65
20656;BME280;10487;53.320;8.672;2022-11-15T03:13:39;100683.44;;;4.47;62.66
20656;BME280;10487;53.320;8.672;2022-11-15T03:17:14;100687.50;;;4.54;62.74
20656;BME280;10487;53.320;8.672;2022-11-15T03:20:18;100680.97;;;4.61;62.61
20656;BME280;10487;53.320;8.672;2022-11-15T03:23:20;100676.31;;;4.66;62.58
20656;BME280;10487;53.320;8.672;2022-11-15T03:26:23;100680.44;;;4.71;62.69
20656;BME280;10487;53.320;8.672;2022-11-15T03:29:32;100682.75;;;4.77;62.64
20656;BME280;10487;53.320;8.672;2022-11-15T03:32:38;100685.88;;;4.86;62.52
20656;BME280;10487;53.320;8.672;2022-11-15T03:35:44;100682.97;;;4.90;62.69
20656;BME280;10487;53.320;8.672;2022-11-15T03:38:45;100681.75;;;4.97;62.63
20656;BME280;10487;53.320;8.672;2022-11-15T03:45:17;100671.47;;;5.08;62.65
20656;BME280;10487;53.320;8.672;2022-11-15T03:48:24;100679.13;;;5.14;62.55
20656;BME280;10487;53.320;8.672;2022-11-15T03:51:29;100670.84;;;5.20;62.61
20656;BME280;10487;53.320;8.672;2022-11-15T03:54:31;100677.72;;;5.24;62.66
20656;BME280;10487;53.320;8.672;2022-11-15T03:57:32;100673.03;;;5.29;62.58
20656;BME280;10487;53.320;8.672;2022-11-15T04:00:34;100670.16;;;5.34;62.55
20656;BME280;10487;53.320;8.672;2022-11-15T04:03:35;100670.81;;;5.37;62.68
20656;BME280;10487;53.320;8.672;2022-11-15T04:06:37;100661.81;;;5.42;62.76
20656;BME280;10487;53.320;8.672;2022-11-15T04:09:39;100670.50;;;5.44;62.66
20656;BME280;10487;53.320;8.672;2022-11-15T04:13:02;100658.81;;;5.48;62.70
20656;BME280;10487;53.320;8.672;2022-11-15T04:16:04;100656.00;;;5.51;62.68
20656;BME280;10487;53.320;8.672;2022-11-15T04:19:05;100663.78;;;5.54;62.55
20656;BME280;10487;53.320;8.672;2022-11-15T04:22:25;100661.91;;;5.56;62.73
20656;BME280;10487;53.320;8.672;2022-11-15T04:25:51;100659.16;;;5.57;62.71
20656;BME280;10487;53.320;8.672;2022-11-15T04:28:53;100665.16;;;5.61;62.79
20656;BME280;10487;53.320;8.672;2022-11-15T04:32:14;100659.84;;;5.61;62.81
20656;BME280;10487;53.320;8.672;2022-11-15T04:35:15;100663.38;;;5.61;62.72
20656;BME280;10487;53.320;8.672;2022-11-15T04:38:17;100668.56;;;5.63;62.77
20656;BME280;10487;53.320;8.672;2022-11-15T04:41:18;100665.06;;;5.62;62.69
20656;BME280;10487;53.320;8.672;2022-11-15T04:44:20;100666.69;;;5.65;62.78
20656;BME280;10487;53.320;8.672;2022-11-15T04:47:21;100661.31;;;5.66;62.87
20656;BME280;10487;53.320;8.672;2022-11-15T04:50:23;100658.59;;;5.68;62.73
20656;BME280;10487;53.320;8.672;2022-11-15T04:53:24;100664.66;;;5.70;62.74
20656;BME280;10487;53.320;8.672;2022-11-15T04:56:26;100656.69;;;5.70;62.83
20656;BME280;10487;53.320;8.672;2022-11-15T04:59:27;100657.47;;;5.72;62.96
20656;BME280;10487;53.320;8.672;2022-11-15T05:02:29;100663.56;;;5.74;62.85
20656;BME280;10487;53.320;8.672;2022-11-15T05:05:50;100659.03;;;5.76;62.84
20656;BME280;10487;53.320;8.672;2022-11-15T05:08:52;100661.41;;;5.80;62.81
20656;BME280;10487;53.320;8.672;2022-11-15T05:11:54;100659.38;;;5.85;62.93
20656;BME280;10487;53.320;8.672;2022-11-15T05:14:55;100660.06;;;5.89;62.99
20656;BME280;10487;53.320;8.672;2022-11-15T05:17:58;100665.09;;;5.93;62.88
20656;BME280;10487;53.320;8.672;2022-11-15T05:21:05;100652.53;;;5.97;62.82
20656;BME280;10487;53.320;8.672;2022-11-15T05:24:09;100653.22;;;6.00;62.87
20656;BME280;10487;53.320;8.672;2022-11-15T05:27:11;100656.63;;;6.02;62.92
20656;BME280;10487;53.320;8.672;2022-11-15T05:30:13;100662.63;;;6.06;62.94
20656;BME280;10487;53.320;8.672;2022-11-15T05:33:14;100654.59;;;6.07;62.84
20656;BME280;10487;53.320;8.672;2022-11-15T05:36:18;100665.94;;;6.10;62.92
20656;BME280;10487;53.320;8.672;2022-11-15T05:39:21;100657.06;;;6.11;62.84
20656;BME280;10487;53.320;8.672;2022-11-15T05:42:25;100656.03;;;6.13;62.93
20656;BME280;10487;53.320;8.672;2022-11-15T05:45:28;100647.91;;;6.16;62.97
20656;BME280;10487;53.320;8.672;2022-11-15T05:48:30;100654.75;;;6.20;63.02
20656;BME280;10487;53.320;8.672;2022-11-15T05:51:32;100645.59;;;6.26;62.88
20656;BME280;10487;53.320;8.672;2022-11-15T05:54:35;100644.47;;;6.30;62.92
20656;BME280;10487;53.320;8.672;2022-11-15T05:57:38;100639.94;;;6.32;62.95
20656;BME280;10487;53.320;8.672;2022-11-15T06:00:39;100640.63;;;6.35;62.83
20656;BME280;10487;53.320;8.672;2022-11-15T06:03:41;100635.22;;;6.37;62.93
20656;BME280;10487;53.320;8.672;2022-11-15T06:06:43;100644.78;;;6.39;62.94
20656;BME280;10487;53.320;8.672;2022-11-15T06:09:44;100640.25;;;6.41;62.81
20656;BME280;10487;53.320;8.672;2022-11-15T06:12:46;100639.31;;;6.42;63.02
20656;BME280;10487;53.320;8.672;2022-11-15T06:15:47;100647.97;;;6.46;63.07
20656;BME280;10487;53.320;8.672;2022-11-15T06:18:49;100647.00;;;6.47;62.95
20656;BME280;10487;53.320;8.672;2022-11-15T06:21:51;100654.88;;;6.48;62.98
20656;BME280;10487;53.320;8.672;2022-11-15T06:24:52;100661.69;;;6.52;62.88
20656;BME280;10487;53.320;8.672;2022-11-15T06:27:55;100658.69;;;6.58;62.86
20656;BME280;10487;53.320;8.672;2022-11-15T06:31:09;100658.31;;;6.64;62.64
20656;BME280;10487;53.320;8.672;2022-11-15T06:34:12;100653.66;;;6.69;62.72
20656;BME280;10487;53.320;8.672;2022-11-15T06:37:13;100655.16;;;6.74;62.72
20656;BME280;10487;53.320;8.672;2022-11-15T06:40:15;100654.06;;;6.78;62.65
20656;BME280;10487;53.320;8.672;2022-11-15T06:43:17;100655.75;;;6.79;62.67
20656;BME280;10487;53.320;8.672;2022-11-15T06:46:18;100661.84;;;6.81;62.82
20656;BME280;10487;53.320;8.672;2022-11-15T06:49:20;100658.97;;;6.84;62.71
20656;BME280;10487;53.320;8.672;2022-11-15T06:52:22;100662.47;;;6.84;62.74
20656;BME280;10487;53.320;8.672;2022-11-15T06:55:23;100665.06;;;6.86;62.62
20656;BME280;10487;53.320;8.672;2022-11-15T06:58:25;100665.06;;;6.86;62.75
20656;BME280;10487;53.320;8.672;2022-11-15T07:01:26;100675.69;;;6.86;62.77
20656;BME280;10487;53.320;8.672;2022-11-15T07:04:28;100676.50;;;6.86;62.62
20656;BME280;10487;53.320;8.672;2022-11-15T07:07:29;100675.56;;;6.87;62.76
20656;BME280;10487;53.320;8.672;2022-11-15T07:10:31;100678.13;;;6.89;62.86
20656;BME280;10487;53.320;8.672;2022-11-15T07:13:33;100680.69;;;6.90;62.87
20656;BME280;10487;53.320;8.672;2022-11-15T07:16:36;100676.25;;;6.91;62.84
20656;BME280;10487;53.320;8.672;2022-11-15T07:19:38;100685.16;;;6.90;62.88
20656;BME280;10487;53.320;8.672;2022-11-15T07:22:40;100679.84;;;6.90;62.94
20656;BME280;10487;53.320;8.672;2022-11-15T07:25:42;100684.22;;;6.91;62.96
20656;BME280;10487;53.320;8.672;2022-11-15T07:28:44;100681.47;;;6.92;62.98
20656;BME280;10487;53.320;8.672;2022-11-15T07:31:45;100678.91;;;6.91;63.02
20656;BME280;10487;53.320;8.672;2022-11-15T07:34:47;100679.84;;;6.90;62.78
20656;BME280;10487;53.320;8.672;2022-11-15T07:38:02;100680.00;;;6.87;62.97
20656;BME280;10487;53.320;8.672;2022-11-15T07:41:04;100680.13;;;6.85;62.81
20656;BME280;10487;53.320;8.672;2022-11-15T07:44:06;100679.25;;;6.85;63.07
20656;BME280;10487;53.320;8.672;2022-11-15T07:47:08;100680.97;;;6.86;63.04
20656;BME280;10487;53.320;8.672;2022-11-15T07:50:09;100678.22;;;6.87;62.93
20656;BME280;10487;53.320;8.672;2022-11-15T07:53:11;100677.19;;;6.90;63.06
20656;BME280;10487;53.320;8.672;2022-11-15T07:56:13;100683.25;;;6.92;62.94
20656;BME280;10487;53.320;8.672;2022-11-15T07:59:14;100692.72;;;6.96;63.08
20656;BME280;10487;53.320;8.672;2022-11-15T08:02:16;100686.31;;;7.00;63.16
20656;BME280;10487;53.320;8.672;2022-11-15T08:05:19;100691.34;;;7.04;63.15
20656;BME280;10487;53.320;8.672;2022-11-15T08:08:21;100686.59;;;7.09;62.95
20656;BME280;10487;53.320;8.672;2022-11-15T08:11:23;100688.13;;;7.13;63.03
20656;BME280;10487;53.320;8.672;2022-11-15T08:14:24;100693.19;;;7.18;63.07
20656;BME280;10487;53.320;8.672;2022-11-15T08:17:26;100689.38;;;7.22;63.25
20656;BME280;10487;53.320;8.672;2022-11-15T08:20:29;100686.44;;;7.26;63.21
20656;BME280;10487;53.320;8.672;2022-11-15T08:23:31;100672.88;;;7.31;62.93
20656;BME280;10487;53.320;8.672;2022-11-15T08:26:33;100675.25;;;7.35;63.17
20656;BME280;10487;53.320;8.672;2022-11-15T08:29:35;100678.41;;;7.42;63.13
20656;BME280;10487;53.320;8.672;2022-11-15T08:32:37;100677.06;;;7.49;63.20
20656;BME280;10487;53.320;8.672;2022-11-15T08:35:40;100675.84;;;7.55;63.01
20656;BME280;10487;53.320;8.672;2022-11-15T08:38:42;100671.84;;;7.62;63.00
20656;BME280;10487;53.320;8.672;2022-11-15T08:41:44;100674.97;;;7.68;63.12
20656;BME280;10487;53.320;8.672;2022-11-15T08:44:46;100669.28;;;7.74;62.99
20656;BME280;10487;53.320;8.672;2022-11-15T08:47:47;100676.84;;;7.94;63.46
20656;BME280;10487;53.320;8.672;2022-11-15T08:50:55;100674.47;;;8.04;63.15
20656;BME280;10487;53.320;8.672;2022-11-15T08:53:57;100676.97;;;8.07;63.09
20656;BME280;10487;53.320;8.672;2022-11-15T08:56:59;100679.50;;;8.09;63.10
20656;BME280;10487;53.320;8.672;2022-11-15T09:00:00;100682.16;;;8.09;63.00
20656;BME280;10487;53.320;8.672;2022-11-15T09:03:05;100679.38;;;8.10;62.97
20656;BME280;10487;53.320;8.672;2022-11-15T09:06:07;100681.97;;;8.12;63.14
20656;BME280;10487;53.320;8.672;2022-11-15T09:09:10;100684.50;;;8.13;63.16
20656;BME280;10487;53.320;8.672;2022-11-15T09:12:12;100689.53;;;8.18;63.31
20656;BME280;10487;53.320;8.672;2022-11-15T09:15:15;100676.91;;;8.21;63.24
20656;BME280;10487;53.320;8.672;2022-11-15T09:18:16;100677.53;;;8.25;63.11
20656;BME280;10487;53.320;8.672;2022-11-15T09:21:18;100673.75;;;8.29;63.26
20656;BME280;10487;53.320;8.672;2022-11-15T09:24:20;100675.16;;;8.34;63.27
20656;BME280;10487;53.320;8.672;2022-11-15T09:27:22;100674.75;;;8.40;63.12
20656;BME280;10487;53.320;8.672;2022-11-15T09:30:24;100683.28;;;8.45;63.21
20656;BME280;10487;53.320;8.672;2022-11-15T09:33:27;100674.06;;;8.51;63.24
20656;BME280;10487;53.320;8.672;2022-11-15T09:36:29;100675.34;;;8.58;63.28
20656;BME280;10487;53.320;8.672;2022-11-15T09:39:31;100673.97;;;8.65;63.30
20656;BME280;10487;53.320;8.672;2022-11-15T09:46:14;100674.47;;;8.84;63.17
20656;BME280;10487;53.320;8.672;2022-11-15T09:49:18;100670.44;;;8.91;63.18
20656;BME280;10487;53.320;8.672;2022-11-15T09:52:21;100673.41;;;8.99;63.26
20656;BME280;10487;53.320;8.672;2022-11-15T10:05:49;100665.56;;;9.23;63.10
20656;BME280;10487;53.320;8.672;2022-11-15T10:09:24;100662.69;;;9.26;63.15
20656;BME280;10487;53.320;8.672;2022-11-15T10:12:25;100663.25;;;9.31;63.37
20656;BME280;10487;53.320;8.672;2022-11-15T10:15:28;100657.41;;;9.39;63.15
20656;BME280;10487;53.320;8.672;2022-11-15T10:18:35;100650.56;;;9.47;63.13
20656;BME280;10487;53.320;8.672;2022-11-15T10:24:43;100650.66;;;9.71;63.08
20656;BME280;10487;53.320;8.672;2022-11-15T10:27:53;100635.38;;;9.85;63.17
20656;BME280;10487;53.320;8.672;2022-11-15T10:31:00;100629.75;;;10.01;63.00
20656;BME280;10487;53.320;8.672;2022-11-15T10:34:17;100627.81;;;10.16;63.04
20656;BME280;10487;53.320;8.672;2022-11-15T10:37:31;100630.69;;;10.36;63.06
20656;BME280;10487;53.320;8.672;2022-11-15T10:40:33;100623.72;;;10.46;62.93
20656;BME280;10487;53.320;8.672;2022-11-15T10:43:35;100623.28;;;10.52;62.68
20656;BME280;10487;53.320;8.672;2022-11-15T10:46:39;100629.13;;;10.58;62.57
20656;BME280;10487;53.320;8.672;2022-11-15T10:50:28;100630.81;;;10.59;62.73
20656;BME280;10487;53.320;8.672;2022-11-15T10:53:35;100621.00;;;10.59;62.84
20656;BME280;10487;53.320;8.672;2022-11-15T10:56:41;100621.00;;;10.59;62.60
20656;BME280;10487;53.320;8.672;2022-11-15T10:59:50;100613.13;;;10.58;62.59
20656;BME280;10487;53.320;8.672;2022-11-15T11:02:57;100605.09;;;10.58;62.79
20656;BME280;10487;53.320;8.672;2022-11-15T11:06:11;100601.59;;;10.57;62.75
20656;BME280;10487;53.320;8.672;2022-11-15T11:09:32;100585.09;;;10.63;62.67
20656;BME280;10487;53.320;8.672;2022-11-15T11:12:34;100596.16;;;10.70;62.80
20656;BME280;10487;53.320;8.672;2022-11-15T11:15:36;100586.09;;;10.73;62.77
20656;BME280;10487;53.320;8.672;2022-11-15T11:32:10;100572.94;;;11.16;62.56
20656;BME280;10487;53.320;8.672;2022-11-15T11:35:32;100573.06;;;11.26;62.68
20656;BME280;10487;53.320;8.672;2022-11-15T11:48:51;100551.56;;;11.38;62.37
20656;BME280;10487;53.320;8.672;2022-11-15T12:01:31;100543.56;;;11.60;62.52
20656;BME280;10487;53.320;8.672;2022-11-15T12:04:39;100547.56;;;11.66;62.34
20656;BME280;10487;53.320;8.672;2022-11-15T12:07:43;100544.66;;;11.69;62.52
20656;BME280;10487;53.320;8.672;2022-11-15T12:10:52;100537.34;;;11.71;62.26
20656;BME280;10487;53.320;8.672;2022-11-15T12:14:03;100541.22;;;11.78;62.34
20656;BME280;10487;53.320;8.672;2022-11-15T12:17:10;100544.34;;;11.83;62.38
20656;BME280;10487;53.320;8.672;2022-11-15T12:20:28;100546.66;;;11.88;61.93
20656;BME280;10487;53.320;8.672;2022-11-15T12:23:49;100542.00;;;11.90;62.27
20656;BME280;10487;53.320;8.672;2022-11-15T12:27:08;100548.94;;;11.92;62.08
20656;BME280;10487;53.320;8.672;2022-11-15T12:30:16;100540.09;;;11.92;62.00
20656;BME280;10487;53.320;8.672;2022-11-15T12:36:38;100534.75;;;11.92;61.83
20656;BME280;10487;53.320;8.672;2022-11-15T12:56:25;100500.44;;;12.28;61.96
20656;BME280;10487;53.320;8.672;2022-11-15T13:03:17;100498.78;;;12.16;61.91
20656;BME280;10487;53.320;8.672;2022-11-15T13:06:39;100493.78;;;12.12;61.98
20656;BME280;10487;53.320;8.672;2022-11-15T13:15:53;100485.00;;;12.00;61.73
20656;BME280;10487;53.320;8.672;2022-11-15T13:18:58;100486.34;;;11.95;61.93
20656;BME280;10487;53.320;8.672;2022-11-15T13:22:04;100482.47;;;11.88;61.63
20656;BME280;10487;53.320;8.672;2022-11-15T13:28:54;100476.19;;;11.89;61.92
20656;BME280;10487;53.320;8.672;2022-11-15T13:31:57;100476.44;;;11.86;61.87
20656;BME280;10487;53.320;8.672;2022-11-15T13:35:00;100482.16;;;11.81;61.99
20656;BME280;10487;53.320;8.672;2022-11-15T13:38:04;100485.06;;;11.78;61.74
20656;BME280;10487;53.320;8.672;2022-11-15T13:41:19;100483.50;;;11.75;61.62
20656;BME280;10487;53.320;8.672;2022-11-15T13:44:29;100474.06;;;11.71;61.54
20656;BME280;10487;53.320;8.672;2022-11-15T13:47:32;100472.47;;;11.69;61.69
20656;BME280;10487;53.320;8.672;2022-11-15T13:50:36;100479.66;;;11.68;61.70
20656;BME280;10487;53.320;8.672;2022-11-15T13:53:43;100479.66;;;11.68;61.92
20656;BME280;10487;53.320;8.672;2022-11-15T13:56:54;100475.53;;;11.64;61.98
20656;BME280;10487;53.320;8.672;2022-11-15T14:00:03;100474.69;;;11.64;61.89
20656;BME280;10487;53.320;8.672;2022-11-15T14:06:17;100475.78;;;11.61;61.62
20656;BME280;10487;53.320;8.672;2022-11-15T14:12:35;100472.41;;;11.59;61.58
20656;BME280;10487;53.320;8.672;2022-11-15T14:15:38;100468.72;;;11.60;61.61
20656;BME280;10487;53.320;8.672;2022-11-15T14:22:16;100463.78;;;11.56;61.73
20656;BME280;10487;53.320;8.672;2022-11-15T14:25:21;100464.72;;;11.55;61.42
20656;BME280;10487;53.320;8.672;2022-11-15T14:31:24;100448.34;;;11.48;61.38
20656;BME280;10487;53.320;8.672;2022-11-15T14:34:26;100451.25;;;11.45;61.75
20656;BME280;10487;53.320;8.672;2022-11-15T14:37:32;100449.81;;;11.41;61.73
20656;BME280;10487;53.320;8.672;2022-11-15T14:40:35;100452.00;;;11.36;61.84
20656;BME280;10487;53.320;8.672;2022-11-15T14:43:37;100453.97;;;11.34;61.75
20656;BME280;10487;53.320;8.672;2022-11-15T14:46:38;100450.56;;;11.32;61.50
20656;BME280;10487;53.320;8.672;2022-11-15T14:49:40;100458.09;;;11.27;61.79
20656;BME280;10487;53.320;8.672;2022-11-15T14:52:43;100450.34;;;11.24;61.67
20656;BME280;10487;53.320;8.672;2022-11-15T14:55:44;100450.56;;;11.21;61.61
20656;BME280;10487;53.320;8.672;2022-11-15T14:58:46;100435.78;;;11.17;61.62
20656;BME280;10487;53.320;8.672;2022-11-15T15:01:48;100438.69;;;11.14;62.05
20656;BME280;10487;53.320;8.672;2022-11-15T15:04:49;100438.19;;;11.31;62.10
20656;BME280;10487;53.320;8.672;2022-11-15T15:07:51;100429.22;;;11.32;61.77
20656;BME280;10487;53.320;8.672;2022-11-15T15:10:54;100428.09;;;11.35;61.88
20656;BME280;10487;53.320;8.672;2022-11-15T15:13:56;100430.50;;;11.38;61.85
20656;BME280;10487;53.320;8.672;2022-11-15T15:16:59;100430.41;;;11.28;61.71
20656;BME280;10487;53.320;8.672;2022-11-15T15:20:01;100424.34;;;11.15;61.85
20656;BME280;10487;53.320;8.672;2022-11-15T15:23:02;100427.78;;;11.06;61.62
20656;BME280;10487;53.320;8.672;2022-11-15T15:26:04;100423.44;;;10.94;61.83
20656;BME280;10487;53.320;8.672;2022-11-15T15:29:05;100415.41;;;10.83;61.49
20656;BME280;10487;53.320;8.672;2022-11-15T15:32:08;100411.56;;;10.87;61.64
20656;BME280;10487;53.320;8.672;2022-11-15T15:35:14;100422.81;;;10.68;61.67
20656;BME280;10487;53.320;8.672;2022-11-15T15:38:15;100417.88;;;10.52;61.73
20656;BME280;10487;53.320;8.672;2022-11-15T15:41:17;100413.56;;;10.39;61.87
20656;BME280;10487;53.320;8.672;2022-11-15T15:44:18;100413.31;;;10.31;61.91
20656;BME280;10487;53.320;8.672;2022-11-15T15:47:22;100412.94;;;10.24;61.68
20656;BME280;10487;53.320;8.672;2022-11-15T15:53:25;100403.47;;;10.09;61.56
20656;BME280;10487;53.320;8.672;2022-11-15T15:56:26;100395.19;;;10.01;61.63
20656;BME280;10487;53.320;8.672;2022-11-15T15:59:29;100397.63;;;9.93;61.42
20656;BME280;10487;53.320;8.672;2022-11-15T16:02:31;100393.81;;;9.84;61.63
20656;BME280;10487;53.320;8.672;2022-11-15T16:05:39;100392.59;;;9.77;61.62
20656;BME280;10487;53.320;8.672;2022-11-15T16:08:41;100382.28;;;9.73;61.61
20656;BME280;10487;53.320;8.672;2022-11-15T16:12:03;100384.44;;;9.68;61.54
20656;BME280;10487;53.320;8.672;2022-11-15T16:15:04;100377.53;;;9.65;61.54
20656;BME280;10487;53.320;8.672;2022-11-15T16:18:08;100373.53;;;9.60;61.51
20656;BME280;10487;53.320;8.672;2022-11-15T16:21:14;100369.50;;;9.54;61.51
20656;BME280;10487;53.320;8.672;2022-11-15T16:24:15;100373.38;;;9.50;61.47
20656;BME280;10487;53.320;8.672;2022-11-15T16:27:19;100373.59;;;9.47;61.47
20656;BME280;10487;53.320;8.672;2022-11-15T16:30:22;100376.59;;;9.43;61.49
20656;BME280;10487;53.320;8.672;2022-11-15T16:33:24;100373.44;;;9.38;61.40
20656;BME280;10487;53.320;8.672;2022-11-15T16:36:26;100364.06;;;9.32;61.45
20656;BME280;10487;53.320;8.672;2022-11-15T16:39:32;100360.00;;;9.26;61.41
20656;BME280;10487;53.320;8.672;2022-11-15T16:42:33;100356.03;;;9.21;61.58
20656;BME280;10487;53.320;8.672;2022-11-15T16:45:35;100351.78;;;9.18;61.66
20656;BME280;10487;53.320;8.672;2022-11-15T16:48:36;100347.41;;;9.17;61.52
20656;BME280;10487;53.320;8.672;2022-11-15T16:51:38;100344.00;;;9.15;61.55
20656;BME280;10487;53.320;8.672;2022-11-15T16:54:42;100346.78;;;9.14;61.45
20656;BME280;10487;53.320;8.672;2022-11-15T16:57:43;100358.38;;;9.13;61.53
20656;BME280;10487;53.320;8.672;2022-11-15T17:00:50;100355.72;;;9.13;61.52
20656;BME280;10487;53.320;8.672;2022-11-15T17:03:52;100357.53;;;9.12;61.51
20656;BME280;10487;53.320;8.672;2022-11-15T17:06:54;100355.72;;;9.13;61.59
20656;BME280;10487;53.320;8.672;2022-11-15T17:09:56;100356.59;;;9.13;61.31
20656;BME280;10487;53.320;8.672;2022-11-15T17:12:58;100352.94;;;9.14;61.53
20656;BME280;10487;53.320;8.672;2022-11-15T17:16:04;100347.63;;;9.14;61.42
20656;BME280;10487;53.320;8.672;2022-11-15T17:19:18;100344.00;;;9.15;61.44
20656;BME280;10487;53.320;8.672;2022-11-15T17:22:20;100338.81;;;9.14;61.51
20656;BME280;10487;53.320;8.672;2022-11-15T17:25:21;100342.41;;;9.13;61.46
20656;BME280;10487;53.320;8.672;2022-11-15T17:28:23;100333.47;;;9.14;61.50
20656;BME280;10487;53.320;8.672;2022-11-15T17:31:25;100336.03;;;9.15;61.58
20656;BME280;10487;53.320;8.672;2022-11-15T17:34:27;100336.03;;;9.15;61.45
20656;BME280;10487;53.320;8.672;2022-11-15T17:37:28;100332.41;;;9.16;61.56
20656;BME280;10487;53.320;8.672;2022-11-15T17:40:30;100335.91;;;9.17;61.49
20656;BME280;10487;53.320;8.672;2022-11-15T17:43:32;100326.97;;;9.18;61.52
20656;BME280;10487;53.320;8.672;2022-11-15T17:46:34;100325.25;;;9.17;61.50
20656;BME280;10487;53.320;8.672;2022-11-15T17:49:36;100322.59;;;9.17;61.54
20656;BME280;10487;53.320;8.672;2022-11-15T17:52:41;100312.78;;;9.17;61.63
20656;BME280;10487;53.320;8.672;2022-11-15T17:55:42;100311.84;;;9.18;61.59
20656;BME280;10487;53.320;8.672;2022-11-15T17:58:51;100305.53;;;9.19;61.61
20656;BME280;10487;53.320;8.672;2022-11-15T18:01:53;100301.94;;;9.20;61.51
20656;BME280;10487;53.320;8.672;2022-11-15T18:04:55;100305.31;;;9.22;61.54
20656;BME280;10487;53.320;8.672;2022-11-15T18:07:57;100292.94;;;9.21;61.51
20656;BME280;10487;53.320;8.672;2022-11-15T18:11:50;100296.38;;;9.23;61.50
20656;BME280;10487;53.320;8.672;2022-11-15T18:14:33;100297.19;;;9.24;61.47
20656;BME280;10487;53.320;8.672;2022-11-15T18:17:35;100298.06;;;9.24;61.48
20656;BME280;10487;53.320;8.672;2022-11-15T18:20:37;100291.88;;;9.24;61.51